Aérodrome :
LOGIN :

S'inscrire | Disclaimer

   EN    FR    IT 

 










Légende :    VFR   VFR Marginal   IFR   IFR Intensif   IFR Très Intensif
Visi : 
Plafond : 
>= 8 km
>= 3000ft
5 à 8 km
1000 à 3000 ft
1500m à 5 km
500 à 1000 ft
800 à 1500m
200 à 500 ft
< 800m
< 200 ft
Symboles :   Orages  Brouillard  Fortes neiges  Fortes précipitations  Vent > 20 kt
SIGMETs :   Divers  Orages  Givrage  Turbulence  Onde Orograph.  Cendres Volcan.







- Altitude de l'aérodrome : 404 ft
- Code IATA : WRO


EPWR - Wroclaw

METARs EXPIRÉS :
  • 241430Z 29012KT 260V330 CAVOK 28/12 Q1011
  • 241400Z 28014KT 260V320 CAVOK 27/13 Q1011
  • 241330Z 29011G23KT 220V360 CAVOK 28/13 Q1011
  • 241300Z 28008KT 230V340 CAVOK 27/12 Q1012
  • 241230Z 28012KT 250V320 CAVOK 27/12 Q1012
  • 241200Z 31016KT CAVOK 28/12 Q1012

TAF TAF EPWR
Valide du 23 à 18h jusqu'au 24 à 18h UTC


231730Z 2318/2418 30008KT 9999 SCT040
Pas de NOTAMs connus pour ce terrain.



MET'MAP, la Météo Aéronautique d'un coup d'oeil ! - Copyright ORBIFLY Décembre 2007 - Disclaimer

ORBIFLY MET'MAP TEAM :

Programmation & Développement : Alexandra Zaïnal
Conception & Développement : Baudouin d'Aumeries
Co-Programmation & Développement : Marc-Olivier Méhu
Soutien technique & logistique : Manuel Goepfert

Contact : metmap@orbifly.com




SOURCES & CREDITS :

   NOAA